Terminal Aerodrome Forecast
Issued by NWS La Crosse, WI

Home | Current Version | Previous Version | Text Only | Print | Product List | Glossary On
Versions: 1 2 3 4 5 6 7 8 9 10 11 12 13 14 15 16 17 18 19 20 21 22 23 24 25
000
FTUS43 KARX 220532
TAFLSE
TAF
KLSE 220532Z 2206/2306 06008KT 6SM -SHRA BR OVC020
     FM221000 03012KT 2SM -RA OVC008
     FM221200 02017G24KT 1 1/2SM RA OVC006 WS020/07050KT
     FM221800 02015KT 2SM -RA OVC008
     FM230000 02012KT 4SM -RASN OVC008=

USA.gov is the U.S. government's official web portal to all federal, state and local government web resources and services.